Time;durP1;ratioP1;P1;durP2;ratioP2;P2;SDS_P1;SDS_P2;PMS_P1;PMS_P2;Temp;Humidity;BMP_temperature;BMP_pressure;BME280_temperature;BME280_humidity;BME280_pressure;Samples;Min_cycle;Max_cycle;Signal;HPM_P1;HPM_P2
2021/11/20 00:00:40;;;;;;;48.28;25.27;;;;;;;5.39;83.81;100307.45;1758328;81;21010;-75
2021/11/20 00:03:08;;;;;;;45.20;24.40;;;;;;;5.40;83.78;100305.27;1757771;80;20916;-75
2021/11/20 00:05:39;;;;;;;49.75;26.62;;;;;;;5.43;83.86;100308.18;1757872;81;20924;-74
2021/11/20 00:08:09;;;;;;;47.73;25.02;;;;;;;5.47;83.94;100299.34;1757941;81;20904;-75
2021/11/20 00:10:38;;;;;;;42.13;25.37;;;;;;;5.49;83.94;100297.52;1758135;80;20936;-74
2021/11/20 00:13:08;;;;;;;50.88;27.35;;;;;;;5.52;83.74;100286.12;1757888;81;21146;-75
2021/11/20 00:15:38;;;;;;;38.85;23.15;;;;;;;5.50;83.60;100287.95;1757990;81;21409;-74
2021/11/20 00:18:05;;;;;;;38.78;22.73;;;;;;;5.48;83.57;100276.30;1757902;80;20900;-73
2021/11/20 00:20:34;;;;;;;40.33;24.27;;;;;;;5.45;83.56;100265.19;1757957;81;20876;-74
2021/11/20 00:23:01;;;;;;;43.70;23.70;;;;;;;5.42;83.60;100269.23;1757832;81;21116;-74
2021/11/20 00:25:35;;;;;;;45.58;25.62;;;;;;;5.40;83.79;100262.79;1758110;80;21091;-74
2021/11/20 00:28:02;;;;;;;40.80;23.42;;;;;;;5.42;83.87;100263.56;1748280;81;20936;-74
2021/11/20 00:30:40;;;;;;;40.63;22.30;;;;;;;5.45;83.90;100251.75;1744505;81;20912;-74
2021/11/20 00:33:05;;;;;;;48.52;24.63;;;;;;;5.50;83.90;100245.04;1744043;81;20936;-72
2021/11/20 00:35:38;;;;;;;47.53;23.38;;;;;;;5.53;83.87;100243.13;1744756;80;20909;-74
2021/11/20 00:38:06;;;;;;;44.23;24.02;;;;;;;5.57;83.97;100240.77;1744750;81;21947;-74
2021/11/20 00:40:40;;;;;;;49.90;26.95;;;;;;;5.61;83.97;100224.13;1744505;82;21422;-74
2021/11/20 00:43:07;;;;;;;49.88;27.50;;;;;;;5.59;83.72;100219.91;1744592;81;20857;-73
2021/11/20 00:45:35;;;;;;;44.42;25.05;;;;;;;5.50;83.63;100215.97;1744523;81;20937;-75
2021/11/20 00:48:04;;;;;;;41.63;25.65;;;;;;;5.45;83.74;100225.75;1744789;82;20972;-74
2021/11/20 00:50:33;;;;;;;46.83;25.52;;;;;;;5.37;83.92;100223.47;1744726;82;21485;-74
2021/11/20 00:53:00;;;;;;;49.30;27.42;;;;;;;5.33;84.15;100223.22;1744715;82;20965;-73
2021/11/20 00:55:28;;;;;;;43.63;25.80;;;;;;;5.34;84.39;100218.88;1744723;81;20933;-74
2021/11/20 00:57:56;;;;;;;44.40;25.00;;;;;;;5.37;84.51;100213.53;1744614;82;20964;-74
2021/11/20 01:00:31;;;;;;;44.65;25.62;;;;;;;5.38;84.56;100200.48;1744597;82;21451;-75
2021/11/20 01:02:58;;;;;;;;;;;;;;;5.37;84.66;100194.03;1747296;80;21789;-73
2021/11/20 01:05:25;;;;;;;42.15;26.02;;;;;;;5.36;84.71;100187.16;1744481;81;20097;-74
2021/11/20 01:07:52;;;;;;;38.80;23.92;;;;;;;5.36;84.83;100184.09;1744937;81;21352;-74
2021/11/20 01:10:24;;;;;;;41.85;25.17;;;;;;;5.39;84.94;100178.75;1744593;80;20886;-73
2021/11/20 01:12:51;;;;;;;44.48;25.32;;;;;;;5.38;84.95;100178.38;1744669;82;20991;-73
2021/11/20 01:15:26;;;;;;;46.85;27.00;;;;;;;5.38;85.00;100186.61;1744691;82;21585;-75
2021/11/20 01:17:53;;;;;;;39.53;24.92;;;;;;;5.36;85.02;100185.40;1744622;81;20961;-75
2021/11/20 01:20:20;;;;;;;43.85;26.52;;;;;;;5.39;85.01;100184.41;1733947;82;21481;-74
2021/11/20 01:22:49;;;;;;;42.55;23.47;;;;;;;5.38;84.93;100183.58;1741788;81;20882;-73
2021/11/20 01:25:31;;;;;;;42.08;25.48;;;;;;;5.38;85.02;100178.38;1744499;81;20953;-75
2021/11/20 01:28:05;;;;;;;;;;;;;;;5.39;85.15;100167.05;1755154;80;21183;-76
2021/11/20 01:30:46;;;;;;;42.05;25.43;;;;;;;5.41;85.14;100170.88;1720932;82;20431;-75
2021/11/20 01:33:14;;;;;;;42.03;26.62;;;;;;;5.42;85.31;100174.32;1721994;83;20909;-76
2021/11/20 01:35:42;;;;;;;42.90;24.85;;;;;;;5.45;85.31;100162.47;1722007;83;21129;-74
2021/11/20 01:38:11;;;;;;;45.73;25.95;;;;;;;5.48;85.35;100155.37;1721893;83;20880;-74
2021/11/20 01:40:40;;;;;;;48.00;27.05;;;;;;;5.49;85.32;100145.37;1721823;83;21120;-75
2021/11/20 01:43:08;;;;;;;46.73;25.92;;;;;;;5.48;85.32;100126.77;1695319;83;21007;-75
2021/11/20 01:45:49;;;;;;;49.70;25.77;;;;;;;5.48;85.28;100122.03;1722209;83;20984;-74
2021/11/20 01:48:46;;;;;;;48.38;26.25;;;;;;;5.49;85.22;100127.17;1721676;83;21401;-75
2021/11/20 01:51:19;;;;;;;40.98;24.52;;;;;;;5.48;85.13;100116.84;1689661;84;20964;-74
2021/11/20 01:53:54;;;;;;;54.90;29.23;;;;;;;5.47;85.26;100131.60;1692800;84;21139;-74
2021/11/20 01:56:48;;;;;;;55.40;27.87;;;;;;;5.47;85.38;100130.30;1674406;85;21047;-75
2021/11/20 01:59:35;;;;;;;51.35;26.90;;;;;;;5.49;85.50;100127.17;1690057;85;21351;-74
2021/11/20 02:02:27;;;;;;;48.78;25.00;;;;;;;5.50;85.50;100113.24;1643288;85;20892;-74
2021/11/20 02:05:13;;;;;;;46.42;25.77;;;;;;;5.49;85.58;100114.17;1691056;83;20959;-75
2021/11/20 02:07:53;;;;;;;39.40;24.07;;;;;;;5.50;85.69;100114.55;1671861;85;21181;-74
2021/11/20 02:10:40;;;;;;;46.00;23.10;;;;;;;5.52;85.81;100115.31;1659273;85;21470;-73
2021/11/20 02:13:15;;;;;;;42.10;24.30;;;;;;;5.54;85.82;100104.85;1692435;84;20911;-74
2021/11/20 02:16:00;;;;;;;41.28;23.80;;;;;;;5.56;85.87;100092.63;1673758;85;20973;-74
2021/11/20 02:18:33;;;;;;;39.27;26.07;;;;;;;5.56;85.83;100103.02;1689587;85;20971;-74
2021/11/20 02:21:11;;;;;;;41.95;25.37;;;;;;;5.56;85.80;100102.56;1692842;84;21833;-75
2021/11/20 02:23:39;;;;;;;44.30;25.65;;;;;;;5.57;85.72;100099.48;1674156;85;20925;-76
2021/11/20 02:26:05;;;;;;;43.55;24.30;;;;;;;5.55;85.73;100093.52;1694277;83;21027;-75
2021/11/20 02:28:51;;;;;;;43.02;24.67;;;;;;;5.50;85.80;100084.64;1721184;83;21048;-75
2021/11/20 02:31:28;;;;;;;37.58;23.83;;;;;;;5.48;86.00;100072.62;1720084;83;20916;-75
2021/11/20 02:33:56;;;;;;;42.08;25.97;;;;;;;5.47;86.23;100061.39;1695336;83;22177;-75
2021/11/20 02:36:23;;;;;;;41.77;26.60;;;;;;;5.46;86.42;100054.95;1695147;83;20952;-75
2021/11/20 02:39:13;;;;;;;40.45;24.92;;;;;;;5.46;86.61;100051.89;1722000;83;21366;-76
2021/11/20 02:41:38;;;;;;;38.98;24.92;;;;;;;5.47;86.75;100037.98;1722049;83;20946;-74
2021/11/20 02:44:07;;;;;;;40.35;25.52;;;;;;;5.48;86.85;100042.26;1721884;83;20880;-73
2021/11/20 02:46:40;;;;;;;40.55;24.20;;;;;;;5.50;86.96;100036.99;1722027;83;21166;-73
2021/11/20 02:49:08;;;;;;;41.75;24.75;;;;;;;5.50;87.02;100038.29;1721863;83;20897;-74
2021/11/20 02:51:43;;;;;;;40.40;25.88;;;;;;;5.52;87.07;100033.86;1721895;83;20924;-74
2021/11/20 02:54:14;;;;;;;42.65;25.50;;;;;;;5.55;87.13;100028.03;1721779;83;20944;-74
2021/11/20 02:56:46;;;;;;;35.15;22.58;;;;;;;5.57;87.11;100016.27;1722060;83;20944;-75
2021/11/20 02:59:13;;;;;;;39.53;25.80;;;;;;;5.63;87.14;100015.97;1721791;83;21256;-75
2021/11/20 03:01:42;;;;;;;41.40;24.35;;;;;;;5.66;87.08;100012.38;1721835;83;20995;-74
2021/11/20 03:04:12;;;;;;;38.35;23.62;;;;;;;5.68;87.04;100004.03;1721936;83;20853;-75
2021/11/20 03:06:39;;;;;;;42.65;24.92;;;;;;;5.72;87.05;99997.77;1722120;83;21022;-75
2021/11/20 03:09:07;;;;;;;39.75;25.88;;;;;;;5.74;87.03;99990.73;1721872;83;20908;-74
2021/11/20 03:11:34;;;;;;;42.30;25.70;;;;;;;5.73;86.98;99972.95;1722080;83;21151;-74
2021/11/20 03:14:05;;;;;;;38.17;25.62;;;;;;;5.71;86.97;99968.75;1721706;83;21003;-75
2021/11/20 03:16:39;;;;;;;40.35;25.82;;;;;;;5.71;86.94;99970.05;1721696;83;20979;-74
2021/11/20 03:19:07;;;;;;;42.27;26.42;;;;;;;5.70;86.95;99964.48;1721898;83;20944;-74
2021/11/20 03:21:38;;;;;;;40.83;25.43;;;;;;;5.66;87.08;99948.17;1721980;83;20992;-74
2021/11/20 03:24:05;;;;;;;42.10;25.50;;;;;;;5.64;87.28;99947.87;1721776;83;21148;-73
2021/11/20 03:26:32;;;;;;;41.68;25.97;;;;;;;5.64;87.36;99950.02;1721693;83;21545;-74
2021/11/20 03:29:00;;;;;;;42.88;26.65;;;;;;;5.64;87.50;99940.08;1711888;83;20861;-74
2021/11/20 03:31:27;;;;;;;41.53;26.80;;;;;;;5.64;87.58;99940.91;1709010;84;20945;-75
2021/11/20 03:33:54;;;;;;;40.40;25.72;;;;;;;5.67;87.65;99937.30;1708883;84;20897;-74
2021/11/20 03:36:22;;;;;;;37.80;25.32;;;;;;;5.69;87.68;99935.03;1708747;84;21479;-74
2021/11/20 03:38:49;;;;;;;40.58;26.50;;;;;;;5.72;87.69;99920.56;1708977;84;20940;-74
2021/11/20 03:41:16;;;;;;;42.33;23.83;;;;;;;5.74;87.63;99925.70;1708672;83;20877;-74
2021/11/20 03:43:45;;;;;;;38.92;24.85;;;;;;;5.74;87.60;99913.52;1708419;84;21454;-74
2021/11/20 03:46:13;;;;;;;40.15;23.90;;;;;;;5.73;87.66;99910.52;1708502;84;21020;-74
2021/11/20 03:48:41;;;;;;;40.17;23.77;;;;;;;5.75;87.70;99911.75;1680522;84;21175;-73
2021/11/20 03:51:08;;;;;;;34.92;22.75;;;;;;;5.77;87.68;99909.91;1708671;84;20940;-74
2021/11/20 03:53:34;;;;;;;34.30;24.18;;;;;;;5.78;87.70;99912.45;1709096;84;20917;-73
2021/11/20 03:56:02;;;;;;;31.75;21.50;;;;;;;5.77;87.69;99899.51;1708806;83;21031;-73
2021/11/20 03:58:29;;;;;;;34.78;24.72;;;;;;;5.79;87.72;99896.37;1708916;83;20941;-74
2021/11/20 04:01:03;;;;;;;38.55;24.25;;;;;;;5.80;87.72;99895.00;1708719;83;21140;-73
2021/11/20 04:03:31;;;;;;;36.45;25.45;;;;;;;5.84;87.74;99896.96;1708693;84;20973;-74
2021/11/20 04:05:58;;;;;;;36.80;23.85;;;;;;;5.85;87.71;99906.47;1708987;84;21355;-75
2021/11/20 04:08:27;;;;;;;33.78;23.05;;;;;;;5.87;87.71;99896.83;1708897;84;20912;-74
2021/11/20 04:10:57;;;;;;;37.73;22.30;;;;;;;5.87;87.69;99889.45;1707138;84;20981;-74
2021/11/20 04:13:24;;;;;;;33.48;21.73;;;;;;;5.88;87.72;99889.38;1680373;84;22124;-74
2021/11/20 04:15:51;;;;;;;35.13;23.52;;;;;;;5.90;87.73;99887.55;1708729;84;21023;-74
2021/11/20 04:18:20;;;;;;;33.98;21.77;;;;;;;5.92;87.70;99886.17;1708730;83;21343;-73
2021/11/20 04:20:47;;;;;;;31.23;21.42;;;;;;;5.94;87.73;99883.89;1708819;84;20945;-74
2021/11/20 04:23:14;;;;;;;31.75;22.45;;;;;;;5.96;87.71;99875.55;1708729;84;21473;-75
2021/11/20 04:25:43;;;;;;;32.53;20.92;;;;;;;5.97;87.66;99868.11;1708609;83;21155;-76
2021/11/20 04:28:11;;;;;;;31.48;22.65;;;;;;;5.97;87.66;99854.27;1708586;84;21401;-75
2021/11/20 04:30:43;;;;;;;33.15;21.45;;;;;;;5.97;87.67;99862.91;1708944;84;20948;-74
2021/11/20 04:33:11;;;;;;;30.05;20.48;;;;;;;5.97;87.69;99844.69;1708870;84;21420;-74
2021/11/20 04:35:38;;;;;;;32.80;20.88;;;;;;;5.98;87.73;99854.19;1708703;84;20905;-73
2021/11/20 04:38:06;;;;;;;30.75;20.45;;;;;;;5.98;87.72;99852.89;1708839;84;21483;-75
2021/11/20 04:42:53;;;;;;;30.30;22.13;;;;;;;5.99;87.88;99835.03;1797757;79;22507;-74
2021/11/20 04:45:23;;;;;;;35.92;23.12;;;;;;;5.95;87.96;99843.09;1758250;80;21611;-73
2021/11/20 04:47:51;;;;;;;39.58;26.00;;;;;;;5.94;88.00;99833.15;1758186;80;21185;-74
2021/11/20 04:50:22;;;;;;;37.00;24.77;;;;;;;5.95;88.02;99835.28;1757826;80;21010;-74
2021/11/20 04:52:49;;;;;;;36.08;23.27;;;;;;;5.94;88.14;99843.99;1767932;80;20949;-74
2021/11/20 04:55:16;;;;;;;37.08;23.38;;;;;;;5.94;88.22;99841.39;1792620;78;21587;-73
2021/11/20 04:57:43;;;;;;;34.95;22.55;;;;;;;5.95;88.31;99834.81;1792526;80;20915;-74
2021/11/20 05:00:16;;;;;;;35.68;24.12;;;;;;;5.97;88.39;99833.45;1792843;80;21111;-74
2021/11/20 05:02:44;;;;;;;40.92;24.15;;;;;;;5.98;88.40;99829.91;1792196;80;20962;-75
2021/11/20 05:05:13;;;;;;;34.27;21.12;;;;;;;6.00;88.42;99829.36;1792861;80;20923;-77
2021/11/20 05:07:40;;;;;;;32.75;22.42;;;;;;;6.01;88.45;99825.85;1792427;78;20954;-74
2021/11/20 05:10:09;;;;;;;35.33;22.10;;;;;;;6.03;88.48;99829.22;1792906;80;21285;-74
2021/11/20 05:12:36;;;;;;;32.65;22.02;;;;;;;6.04;88.48;99825.67;1792749;78;21132;-76
2021/11/20 05:15:05;;;;;;;36.40;22.42;;;;;;;6.04;88.51;99818.34;1791103;78;20864;-75
2021/11/20 05:17:33;;;;;;;30.37;20.70;;;;;;;6.05;88.52;99815.66;1792522;80;20959;-75
2021/11/20 05:20:00;;;;;;;31.68;21.90;;;;;;;6.06;88.52;99805.61;1792552;78;21480;-75
2021/11/20 05:22:28;;;;;;;37.73;23.65;;;;;;;6.07;88.53;99814.25;1792478;78;20923;-75
2021/11/20 05:24:55;;;;;;;29.92;21.70;;;;;;;6.07;88.53;99801.23;1793168;80;21331;-74
2021/11/20 05:27:22;;;;;;;36.05;24.43;;;;;;;6.10;88.56;99808.44;1792457;78;20958;-74
2021/11/20 05:32:18;;;;;;;33.95;21.25;;;;;;;6.14;88.43;99785.69;1792433;78;20848;-76
2021/11/20 05:34:47;;;;;;;31.12;19.60;;;;;;;6.13;88.42;99783.52;1792754;79;21051;-74
2021/11/20 05:37:15;;;;;;;31.77;20.43;;;;;;;6.14;88.43;99790.42;1792530;80;21136;-74
2021/11/20 05:39:42;;;;;;;25.10;18.23;;;;;;;6.15;88.43;99790.79;1792406;78;20950;-73
2021/11/20 05:42:09;;;;;;;24.40;17.87;;;;;;;6.16;88.43;99793.79;1789480;80;20966;-74
2021/11/20 05:44:36;;;;;;;28.42;17.65;;;;;;;6.19;88.40;99801.88;1787239;80;20918;-74
2021/11/20 05:47:05;;;;;;;24.12;17.27;;;;;;;6.18;88.41;99793.68;1786885;80;20868;-74
2021/11/20 05:49:37;;;;;;;27.30;16.97;;;;;;;6.19;88.37;99785.80;1787042;80;21072;-75
2021/11/20 05:52:07;;;;;;;26.42;18.02;;;;;;;6.20;88.36;99790.09;1787158;80;20875;-74
2021/11/20 05:54:36;;;;;;;27.32;17.40;;;;;;;6.20;88.40;99786.19;1786684;79;20887;-75
2021/11/20 05:57:05;;;;;;;29.42;18.05;;;;;;;6.23;88.40;99790.38;1785808;80;20915;-75
2021/11/20 05:59:33;;;;;;;26.37;16.93;;;;;;;6.26;88.33;99800.61;1786778;80;20844;-74
2021/11/20 06:02:01;;;;;;;29.05;19.77;;;;;;;6.27;88.33;99787.99;1786959;80;21470;-75
2021/11/20 06:04:31;;;;;;;28.45;18.70;;;;;;;6.29;88.37;99787.88;1786466;79;20962;-75
2021/11/20 06:06:59;;;;;;;31.87;21.55;;;;;;;6.32;88.40;99785.13;1787105;80;21313;-74
2021/11/20 06:09:26;;;;;;;34.15;22.82;;;;;;;6.33;88.39;99777.21;1786864;80;20923;-75
2021/11/20 06:11:52;;;;;;;33.50;21.90;;;;;;;6.35;88.40;99774.06;1786815;80;20907;-75
2021/11/20 06:14:21;;;;;;;32.67;22.87;;;;;;;6.38;88.38;99773.05;1786544;79;20966;-77
2021/11/20 06:16:48;;;;;;;31.17;20.97;;;;;;;6.39;88.38;99775.57;1787097;80;21330;-76
2021/11/20 06:19:15;;;;;;;30.52;21.25;;;;;;;6.42;88.44;99779.77;1786702;80;20876;-77
2021/11/20 06:21:42;;;;;;;21.48;16.20;;;;;;;6.43;88.44;99774.95;1786877;80;20947;-76
2021/11/20 06:24:10;;;;;;;24.05;17.55;;;;;;;6.45;88.48;99767.89;1786690;80;20962;-76
2021/11/20 06:26:37;;;;;;;22.70;16.48;;;;;;;6.47;88.46;99762.58;1786876;79;21049;-76
2021/11/20 06:29:04;;;;;;;19.77;14.50;;;;;;;6.49;88.47;99758.12;1786554;80;21425;-76
2021/11/20 06:31:33;;;;;;;18.30;14.03;;;;;;;6.53;88.45;99751.81;1786539;79;20942;-76
2021/11/20 06:34:07;;;;;;;;;;;;;;;6.55;88.41;99739.55;1787245;79;20852;-76
2021/11/20 06:36:45;;;;;;;15.58;12.55;;;;;;;6.58;88.33;99727.63;1782840;80;20090;-76
2021/11/20 06:39:14;;;;;;;15.18;12.88;;;;;;;6.61;88.27;99732.69;1785301;80;21615;-76
2021/11/20 06:41:43;;;;;;;13.22;9.70;;;;;;;6.62;88.19;99731.74;1785242;79;20852;-76
2021/11/20 06:44:10;;;;;;;10.88;8.93;;;;;;;6.64;88.11;99720.77;1780697;80;20998;-76
2021/11/20 06:46:37;;;;;;;11.33;9.68;;;;;;;6.66;87.94;99724.59;1780978;80;21034;-76
2021/11/20 06:49:05;;;;;;;10.45;9.10;;;;;;;6.67;87.95;99711.49;1780812;80;20919;-75
2021/11/20 06:51:34;;;;;;;11.78;8.58;;;;;;;6.72;88.00;99704.23;1778968;79;21569;-76
2021/11/20 06:54:03;;;;;;;12.37;8.75;;;;;;;6.75;87.89;99703.21;1776128;80;21350;-74
2021/11/20 06:56:43;;;;;;;14.35;11.28;;;;;;;6.79;87.81;99687.30;1776112;79;21417;-75
2021/11/20 07:01:52;;;;;;;13.50;11.05;;;;;;;6.85;87.62;99679.60;1778920;79;20872;-75
2021/11/20 07:04:23;;;;;;;12.65;10.00;;;;;;;6.91;87.58;99690.11;1780891;80;21518;-76
2021/11/20 07:06:55;;;;;;;10.93;8.83;;;;;;;6.94;87.53;99685.56;1780650;80;20931;-77
2021/11/20 07:09:22;;;;;;;15.85;10.80;;;;;;;6.97;87.32;99668.42;1780206;80;21412;-77
2021/11/20 07:11:50;;;;;;;10.48;8.40;;;;;;;6.98;87.31;99671.86;1780927;79;20935;-74
2021/11/20 07:14:18;;;;;;;14.53;10.45;;;;;;;7.00;87.37;99679.98;1780846;80;20904;-75
2021/11/20 07:16:45;;;;;;;11.15;9.05;;;;;;;7.03;87.39;99679.79;1780638;80;21128;-75
2021/11/20 07:19:12;;;;;;;10.15;7.83;;;;;;;7.08;87.37;99662.56;1750502;80;21560;-75
2021/11/20 07:21:42;;;;;;;12.30;7.60;;;;;;;7.11;87.20;99671.97;1780882;80;20912;-75
2021/11/20 07:24:17;;;;;;;7.65;6.65;;;;;;;7.15;87.17;99683.41;1779664;79;20892;-75
2021/11/20 07:26:44;;;;;;;6.70;5.75;;;;;;;7.20;87.19;99679.22;1780803;79;20919;-76
2021/11/20 07:29:11;;;;;;;8.78;6.33;;;;;;;7.23;87.17;99677.27;1780772;80;21120;-76
2021/11/20 07:31:41;;;;;;;6.65;5.65;;;;;;;7.29;87.13;99668.69;1777068;80;20939;-75
2021/11/20 07:34:08;;;;;;;5.85;5.25;;;;;;;7.31;87.08;99655.92;1780903;80;20829;-75
2021/11/20 07:36:37;;;;;;;8.70;6.95;;;;;;;7.36;87.00;99671.28;1780735;80;20883;-76
2021/11/20 07:39:08;;;;;;;4.83;4.42;;;;;;;7.41;87.06;99679.69;1780857;80;20943;-74
2021/11/20 07:41:35;;;;;;;5.50;4.72;;;;;;;7.45;86.90;99675.95;1780811;80;21128;-74
2021/11/20 07:44:04;;;;;;;8.80;7.83;;;;;;;7.50;86.91;99666.06;1786591;79;20947;-76
2021/11/20 07:46:35;;;;;;;6.58;5.53;;;;;;;7.52;86.88;99658.16;1785637;80;20911;-74
2021/11/20 07:49:04;;;;;;;7.95;5.90;;;;;;;7.52;86.86;99649.02;1786433;80;20947;-74
2021/11/20 07:51:35;;;;;;;5.35;4.85;;;;;;;7.51;86.90;99640.81;1786650;80;20970;-73
2021/11/20 07:54:03;;;;;;;4.67;4.28;;;;;;;7.53;87.02;99646.77;1786456;80;21124;-75
2021/11/20 07:56:30;;;;;;;4.83;4.40;;;;;;;7.54;87.12;99639.33;1786343;79;20911;-76
2021/11/20 07:58:59;;;;;;;4.45;4.05;;;;;;;7.57;87.26;99628.21;1786612;80;20907;-75
2021/11/20 08:01:26;;;;;;;6.22;5.33;;;;;;;7.60;87.39;99619.34;1786583;80;20880;-77
2021/11/20 08:03:55;;;;;;;7.55;3.25;;;;;;;7.66;87.54;99618.48;1758114;80;20919;-77
2021/11/20 08:06:27;;;;;;;10.25;5.62;;;;;;;7.71;87.45;99622.58;1784713;80;21159;-79
2021/11/20 08:09:33;;;;;;;6.33;5.55;;;;;;;7.79;87.44;99622.94;1788587;80;20986;-82
2021/11/20 08:12:35;;;;;;;6.53;5.92;;;;;;;7.86;87.31;99620.29;1649422;81;20936;-88
2021/11/20 08:15:19;;;;;;;9.90;6.17;;;;;;;7.92;87.21;99613.84;1568102;90;21075;-87
2021/11/20 08:17:49;;;;;;;7.22;6.53;;;;;;;7.98;87.11;99609.51;1589581;87;20924;-87
2021/11/20 08:21:03;;;;;;;;;;;;;;;;;;;;;
2021/11/20 08:23:14;;;;;;;7.30;6.65;;;;;;;8.09;86.93;99611.80;1584732;90;21091;-86
2021/11/20 08:25:45;;;;;;;8.08;7.20;;;;;;;8.15;86.88;99611.85;1589236;90;21523;-85
2021/11/20 08:28:16;;;;;;;8.33;7.53;;;;;;;8.19;86.82;99592.91;1586660;89;21040;-85
2021/11/20 08:30:47;;;;;;;8.20;7.40;;;;;;;8.25;86.81;99592.51;1586945;90;21047;-86
2021/11/20 08:33:16;;;;;;;10.53;7.75;;;;;;;8.30;86.80;99601.69;1586501;89;21434;-85
2021/11/20 08:36:02;;;;;;;8.70;7.90;;;;;;;8.38;86.76;99603.80;1587038;90;20916;-84
2021/11/20 08:38:31;;;;;;;8.80;8.00;;;;;;;8.48;86.72;99584.45;1590522;86;21616;-87
2021/11/20 08:41:00;;;;;;;11.30;10.18;;;;;;;8.55;86.59;99590.09;1636920;87;20941;-84
2021/11/20 08:43:29;;;;;;;14.05;12.65;;;;;;;8.63;86.46;99586.02;1620624;87;20959;-84
2021/11/20 08:46:02;;;;;;;9.50;8.18;;;;;;;8.74;86.27;99575.27;1637730;87;21010;-89
2021/11/20 08:48:29;;;;;;;9.55;8.55;;;;;;;8.81;86.19;99582.61;1638055;86;21058;-87
2021/11/20 08:51:03;;;;;;;8.05;7.25;;;;;;;8.92;86.22;99580.55;1638132;86;20955;-85
2021/11/20 08:53:37;;;;;;;8.63;7.62;;;;;;;9.01;86.08;99562.08;1638058;87;21003;-85
2021/11/20 08:56:10;;;;;;;8.03;7.22;;;;;;;9.09;86.05;99574.98;1638615;86;24892;-88
2021/11/20 08:58:45;;;;;;;9.65;8.70;;;;;;;9.19;85.99;99558.63;1635424;87;21082;-88
2021/11/20 09:01:23;;;;;;;9.30;7.92;;;;;;;9.27;85.95;99561.06;1635274;87;20880;-92
2021/11/20 09:04:01;;;;;;;9.50;8.50;;;;;;;9.32;85.75;99563.34;1635481;87;20916;-86
2021/11/20 09:07:03;;;;;;;8.50;7.80;;;;;;;9.41;85.62;99568.39;1642178;86;21599;-90
2021/11/20 09:09:44;;;;;;;9.50;8.55;;;;;;;9.49;85.53;99559.50;1683772;83;20999;-89
2021/11/20 09:12:25;;;;;;;9.03;8.13;;;;;;;9.59;85.39;99557.06;1705875;83;21034;-85
2021/11/20 09:15:26;;;;;;;9.53;8.55;;;;;;;9.67;85.11;99545.53;1708992;83;20890;-86
2021/11/20 09:17:54;;;;;;;13.53;7.75;;;;;;;9.72;84.90;99552.59;1714158;83;21117;-86
2021/11/20 09:20:24;;;;;;;10.00;7.72;;;;;;;9.81;84.71;99543.23;1713397;83;20925;-85
2021/11/20 09:22:52;;;;;;;8.83;8.03;;;;;;;9.87;84.47;99540.99;1714347;83;20936;-85
2021/11/20 09:25:21;;;;;;;8.43;7.62;;;;;;;9.91;84.43;99539.79;1713742;83;21111;-82
2021/11/20 09:27:50;;;;;;;8.55;7.78;;;;;;;9.96;84.43;99528.52;1714867;83;21031;-87
2021/11/20 09:30:23;;;;;;;8.55;7.42;;;;;;;10.03;84.44;99529.37;1716329;83;20873;-85
2021/11/20 09:32:52;;;;;;;7.87;7.05;;;;;;;10.10;84.45;99521.41;1715581;83;20995;-85
2021/11/20 09:35:23;;;;;;;7.00;6.08;;;;;;;10.25;84.43;99517.62;1714976;83;21516;-85
2021/11/20 09:38:01;;;;;;;9.35;6.67;;;;;;;10.33;84.09;99517.88;1692476;83;21189;-84
2021/11/20 09:40:30;;;;;;;6.87;6.12;;;;;;;10.44;83.84;99509.67;1713991;83;20905;-86
2021/11/20 09:43:01;;;;;;;7.53;6.83;;;;;;;10.49;83.62;99518.87;1714379;83;20990;-88
2021/11/20 09:45:37;;;;;;;6.87;6.28;;;;;;;10.54;83.54;99514.58;1714225;83;21035;-90
2021/11/20 09:48:31;;;;;;;8.45;7.65;;;;;;;10.53;83.59;99509.78;1713063;83;20853;-84
2021/11/20 09:51:23;;;;;;;8.55;7.15;;;;;;;10.53;83.58;99501.92;1713878;83;20984;-81
2021/11/20 09:53:52;;;;;;;7.92;7.12;;;;;;;10.54;83.57;99506.72;1713886;83;21414;-83
2021/11/20 09:56:24;;;;;;;7.70;6.92;;;;;;;10.51;83.57;99517.42;1713910;83;21000;-83
2021/11/20 09:58:58;;;;;;;8.35;6.95;;;;;;;10.47;83.40;99524.70;1714177;83;21031;-83
2021/11/20 10:01:29;;;;;;;;;;;;;;;10.45;83.40;99527.91;1716341;83;20941;-84
2021/11/20 10:04:07;;;;;;;7.05;6.45;;;;;;;10.42;83.45;99526.83;1714127;83;22205;-82
2021/11/20 10:06:42;;;;;;;9.83;8.33;;;;;;;10.38;83.48;99526.70;1713842;83;20999;-81
2021/11/20 10:09:26;;;;;;;8.15;7.25;;;;;;;10.36;83.72;99516.84;1713066;83;20885;-82
2021/11/20 10:12:07;;;;;;;9.18;8.03;;;;;;;10.37;84.00;99520.63;1718146;83;20980;-82
2021/11/20 10:14:48;;;;;;;9.78;8.28;;;;;;;10.43;84.16;99512.78;1721582;83;21365;-79
2021/11/20 10:17:41;;;;;;;9.18;8.28;;;;;;;10.51;83.98;99513.00;1722760;83;21151;-79
2021/11/20 10:20:39;;;;;;;9.08;8.18;;;;;;;10.58;83.93;99510.73;1722758;83;20909;-79
2021/11/20 10:23:17;;;;;;;12.07;8.95;;;;;;;10.65;83.75;99519.81;1723432;83;21413;-80
2021/11/20 10:26:05;;;;;;;7.58;6.78;;;;;;;10.71;83.52;99520.63;1722620;83;21410;-80
2021/11/20 10:29:01;;;;;;;8.15;6.90;;;;;;;10.79;83.34;99512.17;1723110;83;20904;-78
2021/11/20 10:31:37;;;;;;;9.48;8.35;;;;;;;10.82;83.03;99516.34;1723578;83;21804;-81
2021/11/20 10:34:27;;;;;;;11.80;10.53;;;;;;;10.84;82.98;99515.74;1723073;83;20956;-80
2021/11/20 10:37:05;;;;;;;12.20;9.75;;;;;;;10.85;82.80;99508.22;1722894;83;20908;-84
2021/11/20 10:39:41;;;;;;;11.43;7.90;;;;;;;10.88;82.55;99510.62;1722184;83;21038;-84
2021/11/20 10:42:22;;;;;;;7.62;6.20;;;;;;;10.88;82.34;99504.89;1722765;83;20956;-81
2021/11/20 10:44:54;;;;;;;9.55;8.33;;;;;;;10.91;82.14;99511.67;1722743;83;21180;-81
2021/11/20 10:47:33;;;;;;;12.98;7.60;;;;;;;10.89;81.73;99504.41;1722726;83;20943;-80
2021/11/20 10:50:27;;;;;;;7.53;6.70;;;;;;;10.88;81.57;99495.70;1722881;83;20987;-82
2021/11/20 10:53:44;;;;;;;11.53;8.20;;;;;;;10.89;81.61;99488.18;1723257;83;21076;-83
2021/11/20 10:56:40;;;;;;;6.78;6.08;;;;;;;10.92;81.39;99486.64;1722588;83;21003;-81
2021/11/20 10:59:47;;;;;;;7.00;5.58;;;;;;;10.95;80.94;99478.52;1723094;83;20989;-82
2021/11/20 11:03:07;;;;;;;8.23;5.62;;;;;;;10.94;80.70;99474.24;1722650;83;20993;-80
2021/11/20 11:06:24;;;;;;;7.90;6.65;;;;;;;10.94;80.28;99477.35;1722904;83;21416;-82
2021/11/20 11:09:19;;;;;;;6.05;4.72;;;;;;;10.94;80.14;99476.04;1722893;83;21535;-78
2021/11/20 11:11:58;;;;;;;6.35;4.78;;;;;;;10.97;80.03;99481.86;1720522;83;20912;-80
2021/11/20 11:14:56;;;;;;;5.92;4.90;;;;;;;11.03;79.93;99481.86;1708140;83;21181;-79
2021/11/20 11:18:18;;;;;;;10.32;5.62;;;;;;;11.07;79.72;99487.22;1713883;83;20988;-80
2021/11/20 11:21:23;;;;;;;9.18;6.37;;;;;;;11.11;79.43;99484.67;1713711;83;20987;-78
2021/11/20 11:24:32;;;;;;;8.28;6.53;;;;;;;11.13;78.95;99493.74;1714064;83;21478;-76
2021/11/20 11:27:15;;;;;;;7.95;4.95;;;;;;;11.11;78.72;99493.86;1713873;83;20921;-77
2021/11/20 11:30:11;;;;;;;10.45;6.47;;;;;;;11.09;78.45;99491.83;1713242;83;21137;-78
2021/11/20 11:32:43;;;;;;;9.48;4.97;;;;;;;11.07;78.49;99480.66;1713659;83;20948;-77
2021/11/20 11:35:32;;;;;;;15.80;8.83;;;;;;;11.11;78.53;99482.53;1713865;83;21000;-78
2021/11/20 11:38:29;;;;;;;10.35;6.15;;;;;;;11.12;78.48;99488.98;1701014;83;20949;-77
2021/11/20 11:41:13;;;;;;;7.20;6.03;;;;;;;11.15;78.36;99495.77;1713981;83;21016;-76
2021/11/20 11:44:06;;;;;;;9.50;5.62;;;;;;;11.13;78.12;99502.45;1711899;83;21150;-78
2021/11/20 11:46:55;;;;;;;8.23;6.53;;;;;;;11.14;78.04;99501.98;1670168;86;20961;-78
2021/11/20 11:50:04;;;;;;;10.85;6.28;;;;;;;11.16;77.94;99507.92;1708556;84;21411;-77
2021/11/20 11:52:52;;;;;;;10.72;7.15;;;;;;;11.20;77.91;99496.22;1708063;83;20996;-79
2021/11/20 11:55:46;;;;;;;11.70;7.67;;;;;;;11.24;77.74;99492.89;1698009;83;20904;-78
2021/11/20 11:58:51;;;;;;;14.45;6.97;;;;;;;11.26;77.45;99498.84;1713914;83;21174;-77
2021/11/20 12:01:23;;;;;;;11.30;5.60;;;;;;;11.27;77.24;99503.98;1714480;83;20909;-80
2021/11/20 12:04:17;;;;;;;8.23;6.05;;;;;;;11.26;76.65;99494.91;1714337;83;20909;-86
2021/11/20 12:06:47;;;;;;;12.33;6.12;;;;;;;11.23;76.61;99498.62;1713760;83;21031;-87
2021/11/20 12:09:25;;;;;;;8.95;5.65;;;;;;;11.22;76.34;99511.86;1713435;83;20933;-83